createdAt,value
2023-05-10T00:02:03.376Z,8.70
2023-05-10T00:07:09.122Z,8.40
2023-05-10T00:12:14.607Z,9.10
2023-05-10T00:17:19.878Z,8.40
2023-05-10T00:22:25.175Z,8.60
2023-05-10T00:27:30.773Z,8.10
2023-05-10T00:32:36.396Z,8.10
2023-05-10T00:37:41.989Z,7.80
2023-05-10T00:42:47.308Z,7.70
2023-05-10T00:47:56.152Z,8.10
2023-05-10T00:53:02.899Z,7.90
2023-05-10T00:58:08.648Z,6.60
2023-05-10T01:03:15.271Z,7.10
2023-05-10T01:08:22.661Z,7.10
2023-05-10T01:13:34.574Z,6.80
2023-05-10T01:18:41.971Z,6.10
2023-05-10T01:24:21.698Z,6.90
2023-05-10T01:30:09.222Z,6.80
2023-05-10T01:35:28.196Z,6.50
2023-05-10T01:40:41.168Z,6.00
2023-05-10T01:45:54.519Z,5.40
2023-05-10T01:51:00.825Z,5.80
2023-05-10T01:56:15.513Z,5.40
2023-05-10T02:01:24.765Z,6.00
2023-05-10T02:06:31.837Z,6.30
2023-05-10T02:11:43.240Z,5.70
2023-05-10T02:16:51.637Z,5.50
2023-05-10T02:21:58.343Z,5.50
2023-05-10T02:27:04.666Z,5.20
2023-05-10T02:32:13.170Z,5.70
2023-05-10T02:37:21.034Z,5.70
2023-05-10T02:42:28.839Z,5.90
2023-05-10T02:47:34.845Z,5.50
2023-05-10T02:52:51.609Z,5.90
2023-05-10T02:58:00.196Z,5.30
2023-05-10T03:03:15.820Z,5.10
2023-05-10T03:08:21.906Z,5.50
2023-05-10T03:13:44.641Z,5.60
2023-05-10T03:19:03.198Z,6.10
2023-05-10T03:24:13.583Z,5.70
2023-05-10T03:29:20.955Z,5.70
2023-05-10T03:34:31.449Z,6.10
2023-05-10T03:39:37.138Z,7.30
2023-05-10T03:44:44.413Z,7.40
2023-05-10T03:49:50.377Z,8.10
2023-05-10T03:54:57.115Z,7.70
2023-05-10T04:00:03.758Z,7.60
2023-05-10T04:05:20.054Z,6.10
2023-05-10T04:10:26.103Z,5.70
2023-05-10T04:15:31.613Z,5.80
2023-05-10T04:20:37.086Z,5.70
2023-05-10T04:25:42.929Z,5.10
2023-05-10T04:30:48.851Z,4.20
2023-05-10T04:35:54.868Z,3.10
2023-05-10T04:41:18.276Z,3.40
2023-05-10T04:46:30.371Z,3.50
2023-05-10T04:51:36.621Z,3.20
2023-05-10T04:56:44.782Z,3.50
2023-05-10T05:01:50.356Z,3.10
2023-05-10T05:06:58.854Z,2.90
2023-05-10T05:12:15.002Z,3.00
2023-05-10T05:17:20.557Z,2.70
2023-05-10T05:22:29.015Z,2.60
2023-05-10T05:27:34.831Z,2.80
2023-05-10T05:32:41.423Z,2.20
2023-05-10T05:37:46.910Z,2.30
2023-05-10T05:42:52.649Z,2.40
2023-05-10T05:47:58.151Z,2.10
2023-05-10T05:53:03.842Z,2.10
2023-05-10T05:58:09.159Z,2.00
2023-05-10T06:03:14.882Z,1.70
2023-05-10T06:08:21.276Z,2.10
2023-05-10T06:13:32.929Z,2.10
2023-05-10T06:18:38.703Z,2.00
2023-05-10T06:23:44.811Z,2.00
2023-05-10T06:28:50.379Z,2.00
2023-05-10T06:33:56.810Z,1.70
2023-05-10T06:39:02.764Z,1.80
2023-05-10T06:44:08.296Z,1.80
2023-05-10T06:49:13.712Z,1.80
2023-05-10T06:54:19.606Z,1.90
2023-05-10T06:59:25.175Z,1.30
2023-05-10T07:04:30.741Z,1.50
2023-05-10T07:09:36.278Z,1.50
2023-05-10T07:14:41.850Z,1.20
2023-05-10T07:19:47.348Z,1.30
2023-05-10T07:24:52.785Z,1.40
2023-05-10T07:29:58.240Z,1.20
2023-05-10T07:35:04.420Z,1.10
2023-05-10T07:40:11.691Z,1.20
2023-05-10T07:50:22.281Z,1.20
2023-05-10T07:55:27.733Z,1.50
2023-05-10T08:00:33.589Z,1.20
2023-05-10T08:05:39.173Z,1.10
2023-05-10T08:10:44.855Z,1.20
2023-05-10T08:15:53.825Z,1.00
2023-05-10T08:20:59.230Z,1.40
2023-05-10T08:26:04.974Z,1.30
2023-05-10T08:31:10.427Z,1.40
2023-05-10T08:36:20.827Z,1.30
2023-05-10T08:41:27.202Z,2.10
2023-05-10T08:46:36.457Z,1.20
2023-05-10T08:51:45.160Z,1.20
2023-05-10T08:56:50.635Z,1.40
2023-05-10T09:01:56.910Z,1.40
2023-05-10T09:07:02.944Z,1.10
2023-05-10T09:12:12.121Z,1.50
2023-05-10T09:17:17.712Z,1.30
2023-05-10T09:22:23.706Z,1.30
2023-05-10T09:27:30.359Z,1.30
2023-05-10T09:32:43.766Z,1.10
2023-05-10T09:37:51.000Z,1.20
2023-05-10T09:42:57.898Z,1.40
2023-05-10T09:48:04.785Z,1.20
2023-05-10T09:53:10.331Z,1.50
2023-05-10T09:58:16.346Z,1.50
2023-05-10T10:03:24.059Z,1.30
2023-05-10T10:08:29.811Z,1.30
2023-05-10T10:13:35.558Z,1.20
2023-05-10T10:18:41.814Z,1.40
2023-05-10T10:23:48.659Z,1.50
2023-05-10T10:29:14.058Z,1.40
2023-05-10T10:34:30.618Z,1.60
2023-05-10T10:39:37.882Z,1.70
2023-05-10T10:44:45.690Z,1.50
2023-05-10T10:50:03.291Z,1.50
2023-05-10T10:55:11.880Z,1.40
2023-05-10T11:00:29.431Z,1.90
2023-05-10T11:05:43.967Z,1.70
2023-05-10T11:10:55.300Z,1.50
2023-05-10T11:16:11.437Z,1.60
2023-05-10T11:21:17.657Z,1.70
2023-05-10T11:26:26.136Z,1.50
2023-05-10T11:31:31.832Z,1.60
2023-05-10T11:36:38.613Z,1.70
2023-05-10T11:41:44.044Z,1.70
2023-05-10T11:46:49.867Z,2.10
2023-05-10T11:52:04.348Z,1.80
2023-05-10T11:57:09.834Z,1.60
2023-05-10T12:02:16.062Z,1.60
2023-05-10T12:07:21.971Z,2.00
2023-05-10T12:12:27.620Z,2.20
2023-05-10T12:17:33.339Z,1.60
2023-05-10T12:22:39.901Z,1.80
2023-05-10T12:27:52.428Z,1.80
2023-05-10T12:33:02.857Z,1.80
2023-05-10T12:38:31.992Z,1.70
2023-05-10T12:43:38.758Z,1.90
2023-05-10T12:48:47.184Z,2.00
2023-05-10T12:53:52.756Z,2.00
2023-05-10T12:58:58.333Z,1.50
2023-05-10T13:04:04.186Z,1.90
2023-05-10T13:09:09.857Z,2.00
2023-05-10T13:14:16.201Z,1.60
2023-05-10T13:19:22.071Z,2.20
2023-05-10T13:24:28.406Z,2.10
2023-05-10T13:29:33.853Z,1.90
2023-05-10T13:34:39.381Z,2.20
2023-05-10T13:39:44.778Z,2.10
2023-05-10T13:44:50.327Z,2.10
2023-05-10T13:49:55.765Z,1.70
2023-05-10T13:55:01.163Z,2.00
2023-05-10T14:00:09.485Z,1.80
2023-05-10T14:05:18.899Z,1.60
2023-05-10T14:10:28.317Z,1.90
2023-05-10T14:15:34.098Z,2.00
2023-05-10T14:20:39.579Z,1.70
2023-05-10T14:25:45.312Z,1.70
2023-05-10T14:30:51.343Z,1.70
2023-05-10T14:35:58.188Z,1.70
2023-05-10T14:41:10.599Z,1.90
2023-05-10T14:46:22.364Z,1.80
2023-05-10T14:51:28.610Z,1.70
2023-05-10T14:56:34.515Z,2.60
2023-05-10T15:01:45.749Z,2.10
2023-05-10T15:06:53.281Z,1.70
2023-05-10T15:11:59.602Z,2.00
2023-05-10T15:17:07.270Z,2.10
2023-05-10T15:22:12.756Z,1.70
2023-05-10T15:27:18.184Z,13.70
2023-05-10T15:32:23.833Z,1.80
2023-05-10T15:37:29.884Z,2.60
2023-05-10T15:42:35.538Z,1.80
2023-05-10T15:47:40.943Z,1.70
2023-05-10T15:52:46.606Z,1.70
2023-05-10T15:57:52.261Z,1.70
2023-05-10T16:02:57.881Z,2.20
2023-05-10T16:08:05.164Z,1.90
2023-05-10T16:13:11.554Z,3.00
2023-05-10T16:18:18.351Z,2.80
2023-05-10T16:23:23.902Z,1.70
2023-05-10T16:28:30.643Z,2.10
2023-05-10T16:33:37.495Z,1.80
2023-05-10T16:38:43.320Z,1.60
2023-05-10T16:43:49.364Z,1.80
2023-05-10T16:48:55.139Z,2.20
2023-05-10T16:54:01.430Z,2.10
2023-05-10T16:59:07.228Z,2.20
2023-05-10T17:04:14.325Z,1.90
2023-05-10T17:09:20.810Z,1.90
2023-05-10T17:14:27.182Z,1.90
2023-05-10T17:19:33.988Z,2.00
2023-05-10T17:24:40.554Z,2.10
2023-05-10T17:29:46.354Z,1.90
2023-05-10T17:34:52.850Z,1.90
2023-05-10T17:39:59.890Z,2.80
2023-05-10T17:45:07.587Z,2.80
2023-05-10T17:50:13.899Z,5.70
2023-05-10T17:55:20.629Z,4.50
2023-05-10T18:00:26.890Z,2.60
2023-05-10T18:05:35.470Z,3.40
2023-05-10T18:10:41.694Z,3.40
2023-05-10T18:15:48.218Z,3.20
2023-05-10T18:20:56.809Z,3.20
2023-05-10T18:26:03.606Z,5.10
2023-05-10T18:31:09.315Z,5.50
2023-05-10T18:36:15.164Z,5.50
2023-05-10T18:41:21.561Z,5.60
2023-05-10T18:46:28.269Z,6.80
2023-05-10T18:51:37.930Z,4.80
2023-05-10T18:56:45.402Z,4.90
2023-05-10T19:01:51.407Z,6.50
2023-05-10T19:06:57.269Z,5.70
2023-05-10T19:12:09.665Z,4.40
2023-05-10T19:17:16.835Z,5.40
2023-05-10T19:22:36.074Z,5.30
2023-05-10T19:27:53.504Z,4.30
2023-05-10T19:32:59.177Z,4.50
2023-05-10T19:38:10.523Z,5.00
2023-05-10T19:43:16.109Z,4.80
2023-05-10T19:48:49.626Z,4.60
2023-05-10T19:53:59.793Z,3.50
2023-05-10T19:59:06.682Z,3.70
2023-05-10T20:04:12.223Z,4.20
2023-05-10T20:09:18.956Z,4.30
2023-05-10T20:14:24.327Z,3.90
2023-05-10T20:19:29.832Z,4.30
2023-05-10T20:24:36.272Z,6.50
2023-05-10T20:29:42.308Z,7.50
2023-05-10T20:34:51.011Z,8.30
2023-05-10T20:39:56.901Z,7.10
2023-05-10T20:45:02.540Z,6.70
2023-05-10T20:50:09.348Z,8.90
2023-05-10T20:55:14.862Z,16.80
2023-05-10T21:00:21.217Z,15.30
2023-05-10T21:05:26.685Z,13.90
2023-05-10T21:10:32.218Z,9.90
2023-05-10T21:15:37.723Z,7.80
2023-05-10T21:20:43.311Z,6.80
2023-05-10T21:25:48.712Z,6.20
2023-05-10T21:30:54.129Z,6.00
2023-05-10T21:35:59.497Z,6.20
2023-05-10T21:41:08.204Z,5.90
2023-05-10T21:46:14.313Z,6.00
2023-05-10T21:51:21.792Z,6.10
2023-05-10T21:56:27.197Z,5.30
2023-05-10T22:01:35.330Z,4.90
2023-05-10T22:06:40.888Z,6.00
2023-05-10T22:11:46.581Z,4.80
2023-05-10T22:16:52.326Z,4.30
2023-05-10T22:21:57.933Z,4.20
2023-05-10T22:27:04.757Z,4.50
2023-05-10T22:32:10.251Z,4.20
2023-05-10T22:37:17.956Z,4.20
2023-05-10T22:42:23.468Z,4.20
2023-05-10T22:47:28.882Z,4.20
2023-05-10T22:52:34.452Z,3.70
2023-05-10T22:57:40.293Z,3.40
2023-05-10T23:02:47.206Z,4.00
2023-05-10T23:07:53.673Z,3.40
2023-05-10T23:12:59.311Z,3.70
2023-05-10T23:18:05.885Z,3.70
2023-05-10T23:23:11.779Z,3.80
2023-05-10T23:28:17.317Z,3.80
2023-05-10T23:33:23.264Z,3.80
2023-05-10T23:38:28.612Z,3.30
2023-05-10T23:43:34.115Z,3.20
2023-05-10T23:48:39.694Z,3.90
2023-05-10T23:53:45.429Z,3.40
2023-05-10T23:58:50.982Z,3.20
